This is the latest recevied weather packets stored in our database for station/object YF9UAG-15. If no packets are shown the sender has not sent any weather packets the latest 10 day(s).
| Time | Temp. | Humidity | Pressure | Rain* | Wind** | Luminosity | Snow |
|---|---|---|---|---|---|---|---|
| 1778113577 | 33.33° C | 82% | 1007.6 hPa | - | - | - | - |
| 1778113456 | 33.89° C | 81% | 1007.7 hPa | - | - | - | - |
| 1778113335 | 33.33° C | 82% | 1007.6 hPa | - | - | - | - |
| 1778113216 | 33.33° C | 83% | 1007.6 hPa | - | - | - | - |
| 1778113093 | 33.33° C | 83% | 1007.7 hPa | - | - | - | - |
| 1778112972 | 33.33° C | 82% | 1007.6 hPa | - | - | - | - |
| 1778112851 | 33.33° C | 83% | 1007.7 hPa | - | - | - | - |
| 1778112730 | 33.89° C | 82% | 1007.7 hPa | - | - | - | - |
| 1778112609 | 34.44° C | 78% | 1007.7 hPa | - | - | - | - |
| 1778112488 | 34.44° C | 81% | 1007.7 hPa | - | - | - | - |
| 1778112368 | 33.89° C | 82% | 1007.7 hPa | - | - | - | - |
| 1778112247 | 35° C | 77% | 1007.8 hPa | - | - | - | - |
| 1778112126 | 34.44° C | 78% | 1007.7 hPa | - | - | - | - |
| 1778112005 | 35° C | 75% | 1007.7 hPa | - | - | - | - |
| 1778111884 | 36.11° C | 72% | 1007.7 hPa | - | - | - | - |
| 1778111763 | 37.22° C | 67% | 1007.7 hPa | - | - | - | - |
| 1778111642 | 37.22° C | 68% | 1007.8 hPa | - | - | - | - |
| 1778111521 | 36.67° C | 69% | 1007.9 hPa | - | - | - | - |
| 1778111400 | 36.67° C | 68% | 1007.8 hPa | - | - | - | - |
| 1778111279 | 36.67° C | 70% | 1007.8 hPa | - | - | - | - |
| 1778111158 | 37.22° C | 67% | 1008 hPa | - | - | - | - |
| 1778111037 | 37.78° C | 67% | 1008 hPa | - | - | - | - |
| 1778110916 | 36.67° C | 72% | 1008 hPa | - | - | - | - |
| 1778110795 | 36.67° C | 73% | 1008 hPa | - | - | - | - |
| 1778110674 | 35° C | 82% | 1008 hPa | - | - | - | - |
* Rain since midnight (hover to see other rain measurements)
** Current wind speed in m/s (hover to see current wind gust speed)